Time;durP1;ratioP1;P1;durP2;ratioP2;P2;SDS_P1;SDS_P2;PMS_P1;PMS_P2;Temp;Humidity;BMP_temperature;BMP_pressure;BME280_temperature;BME280_humidity;BME280_pressure;Samples;Min_cycle;Max_cycle;Signal;HPM_P1;HPM_P2
2021/11/23 00:00:12;;;;;;;;;14.75;11.50;;;;;5.30;65.87;102085.28;4992596;28;46108;-80
2021/11/23 00:02:39;;;;;;;;;21.50;15.00;;;;;5.28;65.40;102081.91;4992840;28;45651;-82
2021/11/23 00:05:06;;;;;;;;;12.25;12.25;;;;;5.27;65.83;102085.38;4992950;28;46518;-85
2021/11/23 00:07:31;;;;;;;;;18.75;16.25;;;;;5.23;65.63;102068.19;4994073;28;46084;-84
2021/11/23 00:09:57;;;;;;;;;15.50;12.00;;;;;5.25;65.81;102078.50;4994934;28;45804;-79
2021/11/23 00:12:23;;;;;;;;;23.25;17.75;;;;;5.15;65.90;102064.06;4994228;28;45661;-85
2021/11/23 00:14:49;;;;;;;;;20.75;16.00;;;;;5.08;65.44;102052.94;4993141;28;46349;-77
2021/11/23 00:17:16;;;;;;;;;19.50;17.25;;;;;5.24;65.59;102071.59;4993045;28;46189;-79
2021/11/23 00:19:41;;;;;;;;;21.50;15.50;;;;;5.11;65.71;102058.09;4993253;28;45674;-78
2021/11/23 00:22:07;;;;;;;;;18.00;14.25;;;;;5.22;65.63;102073.41;4993418;28;45854;-78
2021/11/23 00:24:32;;;;;;;;;14.25;12.50;;;;;5.13;66.36;102058.06;4993170;28;46185;-82
2021/11/23 00:30:20;;;;;;;;;20.25;15.25;;;;;5.16;65.47;102076.16;4992067;28;45734;-79
2021/11/23 00:32:48;;;;;;;;;17.75;15.75;;;;;5.19;65.78;102078.66;4974830;28;45601;-78
2021/11/23 00:35:13;;;;;;;;;13.25;13.25;;;;;5.11;66.06;102071.06;4991902;28;45813;-82
2021/11/23 00:37:39;;;;;;;;;18.00;15.75;;;;;5.15;66.16;102075.28;4992621;28;46164;-83
2021/11/23 00:40:05;;;;;;;;;17.50;15.00;;;;;5.15;65.88;102080.50;4992922;28;45692;-80
2021/11/23 00:45:52;;;;;;;;;16.50;15.00;;;;;5.13;65.91;102073.66;4991273;28;46204;-79
2021/11/23 00:48:17;;;;;;;;;19.50;17.50;;;;;5.14;66.35;102083.13;4993010;28;45854;-80
2021/11/23 00:50:43;;;;;;;;;16.00;15.00;;;;;5.14;65.86;102075.31;4974731;28;45769;-79
2021/11/23 00:53:08;;;;;;;;;16.00;14.75;;;;;5.13;66.07;102079.66;4992280;28;45739;-81
2021/11/23 00:55:35;;;;;;;;;17.00;15.00;;;;;5.12;66.02;102077.97;4991652;28;47530;-79
2021/11/23 00:58:01;;;;;;;;;15.75;15.00;;;;;5.06;65.95;102070.34;4984508;28;46097;-79
2021/11/23 01:00:26;;;;;;;;;17.75;16.50;;;;;5.07;66.41;102074.66;4992399;28;45548;-80
2021/11/23 01:02:53;;;;;;;;;20.00;14.00;;;;;4.97;66.15;102060.16;4990989;28;45831;-79
2021/11/23 01:05:19;;;;;;;;;21.00;15.75;;;;;4.93;66.05;102054.19;4992130;28;45683;-79
2021/11/23 01:07:45;;;;;;;;;20.75;18.50;;;;;5.01;66.35;102080.00;4992342;28;46163;-76
2021/11/23 01:10:11;;;;;;;;;15.50;15.50;;;;;4.98;66.62;102062.72;4992196;28;45631;-82
2021/11/23 01:15:59;;;;;;;;;20.50;17.75;;;;;4.84;66.55;102064.81;4993397;28;45762;-80
2021/11/23 01:18:25;;;;;;;;;16.25;14.25;;;;;5.00;66.46;102070.50;4995182;28;47301;-81
2021/11/23 01:20:51;;;;;;;;;13.50;13.00;;;;;4.70;66.04;102025.34;4995956;28;45699;-81
2021/11/23 01:23:17;;;;;;;;;19.75;18.50;;;;;4.94;66.31;102065.44;4995741;28;45804;-80
2021/11/23 01:25:42;;;;;;;;;17.75;14.75;;;;;5.00;66.05;102076.53;4995846;28;45666;-79
2021/11/23 01:28:08;;;;;;;;;22.75;19.25;;;;;4.98;66.19;102082.63;4995739;28;45903;-80
2021/11/23 01:30:33;;;;;;;;;17.75;14.50;;;;;4.83;66.41;102044.94;4995607;28;46091;-84
2021/11/23 01:32:59;;;;;;;;;18.25;18.00;;;;;4.98;66.63;102077.44;4995853;28;45556;-79
2021/11/23 01:35:24;;;;;;;;;17.25;14.75;;;;;4.96;66.75;102074.91;4995404;28;45603;-83
2021/11/23 01:37:50;;;;;;;;;18.75;16.50;;;;;4.89;66.47;102068.16;4993591;28;47269;-80
2021/11/23 01:40:17;;;;;;;;;17.00;15.00;;;;;4.78;66.35;102057.16;4995711;28;46254;-82
2021/11/23 01:46:05;;;;;;;;;21.50;19.50;;;;;4.81;66.74;102072.66;4995710;28;46069;-82
2021/11/23 01:48:31;;;;;;;;;20.75;17.25;;;;;4.83;66.57;102073.50;4996705;28;46092;-84
2021/11/23 01:50:57;;;;;;;;;18.25;15.00;;;;;4.80;66.56;102076.16;4996147;28;45509;-81
2021/11/23 01:53:23;;;;;;;;;23.75;17.75;;;;;4.79;66.41;102084.84;4996014;28;45789;-80
2021/11/23 01:55:48;;;;;;;;;23.00;20.50;;;;;4.73;66.52;102078.94;4995789;28;47269;-82
2021/11/23 01:58:15;;;;;;;;;18.50;17.00;;;;;4.76;66.59;102082.31;4995365;28;46000;-79
2021/11/23 02:00:41;;;;;;;;;22.25;18.25;;;;;4.78;66.54;102085.72;4995732;28;45786;-84
2021/11/23 02:03:08;;;;;;;;;17.00;17.00;;;;;4.50;66.86;102036.19;4995974;28;45592;-77
2021/11/23 02:05:34;;;;;;;;;24.25;20.75;;;;;4.57;67.05;102052.47;4995008;28;45584;-83
2021/11/23 02:07:59;;;;;;;;;22.25;18.50;;;;;4.81;66.69;102090.84;4995274;28;45704;-82
2021/11/23 02:10:25;;;;;;;;;18.75;14.75;;;;;4.81;66.43;102082.19;4995140;28;45588;-82
2021/11/23 02:16:13;;;;;;;;;20.50;17.50;;;;;4.78;66.49;102087.47;4994864;28;46204;-82
2021/11/23 02:18:39;;;;;;;;;20.75;17.00;;;;;4.79;66.70;102095.22;4996122;28;45834;-82
2021/11/23 02:21:04;;;;;;;;;17.25;15.00;;;;;4.78;66.65;102088.31;4994594;28;45624;-82
2021/11/23 02:23:30;;;;;;;;;21.50;20.25;;;;;4.77;66.84;102088.34;4994257;28;45558;-83
2021/11/23 02:25:56;;;;;;;;;17.50;15.25;;;;;4.76;66.61;102091.81;4994394;28;47529;-80
2021/11/23 02:31:43;;;;;;;;;21.00;17.50;;;;;4.71;66.63;102089.34;4992130;28;45656;-82
2021/11/23 02:34:09;;;;;;;;;21.00;18.00;;;;;4.70;66.48;102087.63;4995319;28;45724;-83
2021/11/23 02:36:36;;;;;;;;;13.50;13.00;;;;;4.71;66.60;102088.47;4994319;28;46376;-83
2021/11/23 02:39:05;;;;;;;;;17.25;14.75;;;;;4.63;66.67;102078.31;4994506;28;46978;-79
2021/11/23 02:41:31;;;;;;;;;17.00;14.00;;;;;4.69;66.99;102077.31;4993779;28;45839;-84
2021/11/23 02:43:57;;;;;;;;;21.50;17.00;;;;;4.67;66.57;102063.50;4995850;28;45651;-82
2021/11/23 02:46:22;;;;;;;;;21.50;18.75;;;;;4.71;66.64;102065.13;4994579;28;47739;-83
2021/11/23 02:48:48;;;;;;;;;19.25;18.00;;;;;4.72;66.46;102074.63;4995197;28;46327;-83
2021/11/23 02:53:39;;;;;;;;;20.50;15.50;;;;;4.71;66.58;102073.78;4994620;28;45529;-82
2021/11/23 02:56:06;;;;;;;;;18.00;15.00;;;;;4.58;66.45;102055.06;4994595;28;47912;-82
2021/11/23 03:01:54;;;;;;;;;18.75;17.75;;;;;4.68;66.79;102071.25;4993559;28;46018;-82
2021/11/23 03:04:20;;;;;;;;;18.50;15.75;;;;;4.68;66.63;102073.00;4994415;28;45671;-81
2021/11/23 03:06:46;;;;;;;;;20.25;17.00;;;;;4.65;66.60;102079.09;4994588;28;47313;-80
2021/11/23 03:09:13;;;;;;;;;20.25;18.00;;;;;4.59;66.60;102056.72;4994272;28;46021;-83
2021/11/23 03:11:38;;;;;;;;;18.50;18.00;;;;;4.49;66.12;102041.41;4994166;28;45766;-82
2021/11/23 03:14:04;;;;;;;;;18.50;17.25;;;;;4.61;66.30;102067.94;4994193;28;45878;-82
2021/11/23 03:16:29;;;;;;;;;19.50;17.75;;;;;4.51;66.39;102050.88;4994165;28;45580;-83
2021/11/23 03:18:54;;;;;;;;;21.75;17.00;;;;;4.60;66.39;102063.63;4977134;28;46087;-82
2021/11/23 03:21:20;;;;;;;;;18.00;15.00;;;;;4.58;66.45;102054.19;4995232;28;45714;-83
2021/11/23 03:23:45;;;;;;;;;19.00;17.75;;;;;4.57;66.29;102055.06;4994761;28;45695;-80
2021/11/23 03:26:11;;;;;;;;;22.00;19.25;;;;;4.46;66.19;102033.72;4993891;28;47331;-79
2021/11/23 03:31:58;;;;;;;;;23.00;17.25;;;;;4.56;66.36;102055.97;4993336;28;46097;-78
2021/11/23 03:34:23;;;;;;;;;19.00;16.75;;;;;4.57;66.25;102053.34;4992871;28;45718;-80
2021/11/23 03:36:49;;;;;;;;;15.50;13.00;;;;;4.56;66.22;102041.25;4994009;28;46992;-81
2021/11/23 03:39:15;;;;;;;;;17.00;15.00;;;;;4.48;66.22;102031.94;4993771;28;46556;-76
2021/11/23 03:41:40;;;;;;;;;20.75;17.75;;;;;4.28;65.73;101998.66;4993718;28;45628;-80
2021/11/23 03:44:06;;;;;;;;;17.75;14.75;;;;;4.57;65.72;102057.66;4994499;28;45695;-79
2021/11/23 03:46:32;;;;;;;;;15.75;14.75;;;;;4.37;65.60;102018.38;4993916;28;46909;-80
2021/11/23 03:48:58;;;;;;;;;15.75;15.50;;;;;4.56;65.85;102049.03;4993199;28;46186;-78
2021/11/23 03:51:24;;;;;;;;;19.00;16.25;;;;;4.57;66.14;102049.88;4993256;28;45882;-79
2021/11/23 03:53:49;;;;;;;;;18.25;15.75;;;;;4.58;65.99;102038.63;4993960;28;45607;-80
2021/11/23 03:56:14;;;;;;;;;19.25;18.50;;;;;4.56;65.72;102027.41;4993773;28;45594;-76
2021/11/23 04:02:01;;;;;;;;;18.00;14.50;;;;;4.59;65.18;102041.16;4993188;28;45638;-80
2021/11/23 04:04:27;;;;;;;;;16.00;15.00;;;;;4.61;65.19;102036.81;4993033;28;45738;-81
2021/11/23 04:06:52;;;;;;;;;18.00;15.00;;;;;4.61;65.16;102042.00;4992911;28;46347;-79
2021/11/23 04:09:18;;;;;;;;;18.00;17.00;;;;;4.57;65.26;102039.50;4993050;28;45994;-80
2021/11/23 04:11:43;;;;;;;;;17.25;14.00;;;;;4.63;65.07;102053.19;4993070;28;45687;-77
2021/11/23 04:17:30;;;;;;;;;17.75;12.00;;;;;4.61;64.92;102044.59;4986720;28;46209;-81
2021/11/23 04:19:55;;;;;;;;;23.50;17.75;;;;;4.55;64.50;102041.28;4993060;28;46582;-79
2021/11/23 04:22:21;;;;;;;;;14.75;13.50;;;;;4.62;64.82;102053.22;4992960;28;45709;-79
2021/11/23 04:24:46;;;;;;;;;18.75;17.75;;;;;4.54;64.77;102042.16;4993228;28;45641;-79
2021/11/23 04:27:12;;;;;;;;;15.00;15.00;;;;;4.62;65.04;102050.63;4993069;28;46566;-79
2021/11/23 04:29:37;;;;;;;;;19.75;15.00;;;;;4.68;64.75;102054.81;4993556;28;45698;-80
2021/11/23 04:32:03;;;;;;;;;19.25;14.50;;;;;4.68;64.64;102040.09;4992725;28;45972;-76
2021/11/23 04:34:28;;;;;;;;;19.00;14.50;;;;;4.67;64.77;102056.56;4993110;28;45775;-79
2021/11/23 04:36:54;;;;;;;;;20.50;14.00;;;;;4.65;64.77;102047.94;4992353;28;45790;-78
2021/11/23 04:39:19;;;;;;;;;17.25;13.50;;;;;4.65;64.35;102045.34;4992569;28;46208;-77
2021/11/23 04:41:45;;;;;;;;;15.00;14.00;;;;;4.67;64.38;102061.75;4992587;28;45584;-78
2021/11/23 04:47:33;;;;;;;;;16.00;15.25;;;;;4.59;64.26;102046.34;4995986;28;45579;-79
2021/11/23 04:49:59;;;;;;;;;18.75;14.50;;;;;4.52;64.68;102041.34;4997089;28;45998;-80
2021/11/23 04:52:24;;;;;;;;;17.50;14.00;;;;;4.57;64.36;102055.94;4996316;28;45565;-79
2021/11/23 04:54:50;;;;;;;;;18.50;17.00;;;;;4.54;64.54;102053.38;4996115;28;45587;-79
2021/11/23 04:57:16;;;;;;;;;17.75;14.00;;;;;4.51;64.83;102052.63;4996281;28;46650;-77
2021/11/23 04:59:42;;;;;;;;;17.75;14.25;;;;;4.53;64.85;102051.72;4996060;28;46581;-80
2021/11/23 05:02:08;;;;;;;;;17.00;15.00;;;;;4.52;64.75;102046.53;4995984;28;45587;-77
2021/11/23 05:04:33;;;;;;;;;18.00;14.25;;;;;4.51;64.28;102068.19;4996115;28;45743;-78
2021/11/23 05:06:59;;;;;;;;;15.25;14.25;;;;;4.42;64.71;102045.06;4995551;28;46631;-77
2021/11/23 05:09:24;;;;;;;;;19.75;13.00;;;;;4.46;64.47;102051.88;4996087;28;45686;-78
2021/11/23 05:11:49;;;;;;;;;14.25;14.00;;;;;4.48;64.61;102057.91;4996133;28;45865;-79
2021/11/23 05:17:37;;;;;;;;;20.25;16.50;;;;;4.27;64.51;102020.28;4998024;28;45997;-79
2021/11/23 05:20:08;;;;;;;;;15.50;14.00;;;;;4.41;64.91;102057.16;4980238;28;46526;-77
2021/11/23 05:22:34;;;;;;;;;18.50;17.25;;;;;4.32;65.00;102039.19;4998496;28;46003;-79
2021/11/23 05:24:59;;;;;;;;;16.50;16.25;;;;;4.42;64.90;102058.03;4998081;28;45905;-80
2021/11/23 05:27:25;;;;;;;;;14.00;13.50;;;;;4.31;64.51;102040.09;4996569;28;47640;-78
2021/11/23 05:29:50;;;;;;;;;17.75;15.00;;;;;4.30;64.54;102053.09;4997646;28;46056;-81
2021/11/23 05:32:16;;;;;;;;;17.00;16.00;;;;;4.34;64.58;102054.72;4997184;28;45752;-81
2021/11/23 05:34:42;;;;;;;;;17.75;16.50;;;;;4.37;64.50;102067.66;4997089;28;45571;-79
2021/11/23 05:37:08;;;;;;;;;16.75;16.00;;;;;4.38;64.44;102064.16;4997086;28;46245;-80
2021/11/23 05:39:36;;;;;;;;;16.75;14.00;;;;;4.21;64.81;102042.03;4996976;28;46760;-84
2021/11/23 05:42:02;;;;;;;;;15.75;14.00;;;;;4.01;64.65;102010.50;4981992;28;45718;-84
2021/11/23 05:44:37;;;;;;;;;14.75;14.25;;;;;4.17;64.48;102032.63;4979700;28;45906;-82
2021/11/23 05:47:06;;;;;;;;;14.50;13.00;;;;;3.84;64.78;101983.22;4979256;28;47385;-82
2021/11/23 05:49:32;;;;;;;;;18.75;16.50;;;;;3.88;64.68;102005.63;4978467;28;47035;-84
2021/11/23 05:51:59;;;;;;;;;20.50;15.50;;;;;4.00;64.73;102028.66;4979325;28;45971;-84
2021/11/23 05:54:36;;;;;;;;;15.50;11.00;;;;;3.54;64.60;101949.28;4994816;28;45701;-82
2021/11/23 05:57:13;;;;;;;;;;;;;;;;;;;;;
2021/11/23 05:59:39;;;;;;;;;16.00;13.75;;;;;3.61;64.62;101970.75;4994169;28;75289;-80
2021/11/23 06:02:05;;;;;;;;;17.25;14.00;;;;;4.27;64.53;102085.13;4994655;28;45580;-80
2021/11/23 06:04:30;;;;;;;;;14.25;11.50;;;;;4.27;64.82;102081.69;4995156;28;45553;-79
2021/11/23 06:06:56;;;;;;;;;17.75;14.50;;;;;4.28;64.56;102088.59;4994503;28;47601;-81
2021/11/23 06:09:23;;;;;;;;;17.25;12.75;;;;;4.26;64.47;102086.03;4994236;28;45869;-80
2021/11/23 06:11:48;;;;;;;;;16.00;14.00;;;;;4.26;64.49;102093.81;4995031;28;45572;-81
2021/11/23 06:14:13;;;;;;;;;19.50;15.25;;;;;4.26;64.60;102090.38;4995097;28;45625;-80
2021/11/23 06:16:44;;;;;;;;;17.00;15.00;;;;;4.25;64.72;102086.91;4993888;28;46335;-81
2021/11/23 06:19:09;;;;;;;;;13.75;13.50;;;;;4.13;64.68;102059.50;4994542;28;46110;-79
2021/11/23 06:21:35;;;;;;;;;11.25;11.25;;;;;4.30;64.88;102084.22;4995385;28;45870;-80
2021/11/23 06:24:01;;;;;;;;;16.00;14.25;;;;;4.31;64.43;102085.94;4995306;28;45485;-78
2021/11/23 06:26:27;;;;;;;;;13.25;11.50;;;;;4.26;64.25;102080.00;4995578;28;46524;-80
2021/11/23 06:28:52;;;;;;;;;14.00;14.00;;;;;4.32;64.17;102087.66;4995795;28;45956;-80
2021/11/23 06:31:17;;;;;;;;;18.00;13.50;;;;;4.34;64.25;102080.69;4997836;28;45684;-82
2021/11/23 06:33:43;;;;;;;;;14.75;14.00;;;;;4.20;64.49;102065.41;4999147;28;45588;-80
2021/11/23 06:36:08;;;;;;;;;14.75;13.00;;;;;4.27;64.05;102068.72;4999641;28;45663;-80
2021/11/23 06:38:34;;;;;;;;;14.25;12.50;;;;;4.35;63.62;102078.06;4999620;28;45689;-81
2021/11/23 06:41:00;;;;;;;;;15.25;13.00;;;;;4.10;63.89;102040.56;5000022;28;45580;-80
2021/11/23 06:43:25;;;;;;;;;14.00;10.25;;;;;4.42;63.58;102097.81;4999483;28;45837;-80
2021/11/23 06:45:51;;;;;;;;;15.00;11.25;;;;;4.46;63.57;102096.84;5002254;28;46327;-81
2021/11/23 06:48:16;;;;;;;;;13.75;11.75;;;;;4.51;63.10;102110.56;5013990;28;45716;-83
2021/11/23 06:50:42;;;;;;;;;16.00;12.00;;;;;4.22;63.02;102055.84;5016898;28;45331;-82
2021/11/23 06:53:10;;;;;;;;;15.25;11.00;;;;;4.55;62.74;102103.56;5015878;28;45286;-81
2021/11/23 06:55:36;;;;;;;;;20.00;17.75;;;;;4.57;62.98;102110.44;4992850;28;47354;-82
2021/11/23 06:58:02;;;;;;;;;12.50;11.50;;;;;4.58;62.13;102112.16;4993841;28;46058;-85
2021/11/23 07:03:51;;;;;;;;;11.00;10.00;;;;;4.57;62.08;102115.63;4994942;28;45662;-84
2021/11/23 07:06:16;;;;;;;;;8.50;8.50;;;;;4.51;62.03;102109.72;4995317;28;46590;-84
2021/11/23 07:08:41;;;;;;;;;13.75;11.00;;;;;4.57;62.19;102115.63;4995203;28;46021;-85
2021/11/23 07:11:07;;;;;;;;;17.25;13.50;;;;;4.46;61.94;102103.75;5000708;28;45679;-83
2021/11/23 07:13:35;;;;;;;;;9.25;8.50;;;;;4.55;62.40;102111.34;4998643;28;45757;-80
2021/11/23 07:16:01;;;;;;;;;12.50;11.75;;;;;4.61;61.85;102117.25;4980490;28;47577;-81
2021/11/23 07:18:26;;;;;;;;;12.25;11.00;;;;;4.68;61.96;102127.50;4998019;28;46423;-82
2021/11/23 07:20:53;;;;;;;;;12.25;10.50;;;;;4.69;62.21;102117.09;5000299;28;45801;-83
2021/11/23 07:23:18;;;;;;;;;14.00;10.50;;;;;4.46;61.98;102078.69;4997577;28;45610;-79
2021/11/23 07:25:45;;;;;;;;;10.00;9.25;;;;;4.68;61.70;102122.31;4998512;28;46310;-81
2021/11/23 07:28:11;;;;;;;;;12.50;12.00;;;;;4.74;61.66;102133.41;4997305;28;46397;-83
2021/11/23 07:33:58;;;;;;;;;14.75;12.25;;;;;4.74;61.85;102138.63;4996967;28;45644;-82
2021/11/23 07:36:25;;;;;;;;;14.25;11.00;;;;;4.61;61.40;102129.38;4997800;28;47038;-83
2021/11/23 07:38:52;;;;;;;;;10.50;9.50;;;;;4.67;61.79;102137.03;4997986;28;45987;-80
2021/11/23 07:41:17;;;;;;;;;13.50;9.25;;;;;4.77;61.61;102156.69;4979810;28;45973;-84
2021/11/23 07:43:43;;;;;;;;;11.25;9.00;;;;;4.77;61.20;102166.22;4997581;28;45570;-80
2021/11/23 07:46:08;;;;;;;;;11.75;11.00;;;;;4.69;61.37;102145.66;4996599;28;46249;-84
2021/11/23 07:48:37;;;;;;;;;11.50;9.25;;;;;4.58;61.08;102139.84;4996990;28;45761;-84
2021/11/23 07:51:03;;;;;;;;;11.25;9.25;;;;;4.67;61.39;102162.97;4997299;28;45640;-81
2021/11/23 07:53:28;;;;;;;;;14.50;11.25;;;;;4.72;61.62;102168.06;4998529;28;45755;-81
2021/11/23 07:55:54;;;;;;;;;17.25;11.25;;;;;4.72;60.89;102176.72;4997818;28;45635;-85
2021/11/23 07:58:21;;;;;;;;;12.00;10.25;;;;;4.58;60.80;102155.41;4998676;28;45712;-79
2021/11/23 08:04:08;;;;;;;;;13.00;10.75;;;;;4.69;60.84;102182.00;4997794;28;45628;-82
2021/11/23 08:06:33;;;;;;;;;12.00;10.00;;;;;4.73;60.60;102182.75;4996630;28;45633;-87
2021/11/23 08:08:59;;;;;;;;;12.00;10.25;;;;;4.70;60.98;102175.88;4997491;28;45646;-80
2021/11/23 08:11:25;;;;;;;;;12.75;10.00;;;;;4.74;60.47;102179.28;4995828;28;45540;-83
2021/11/23 08:13:50;;;;;;;;;10.50;9.50;;;;;4.79;60.50;102183.50;4980427;28;45623;-83
2021/11/23 08:16:15;;;;;;;;;11.00;11.00;;;;;4.74;60.51;102179.28;5000195;28;47189;-82
2021/11/23 08:18:41;;;;;;;;;10.75;10.00;;;;;4.82;60.65;102193.78;4981503;28;46014;-79
2021/11/23 08:21:06;;;;;;;;;10.75;9.00;;;;;4.87;60.18;102194.53;4976144;28;45788;-80
2021/11/23 08:23:32;;;;;;;;;12.50;9.50;;;;;4.89;59.92;102189.34;4958922;28;46017;-85
2021/11/23 08:25:59;;;;;;;;;13.75;11.00;;;;;4.89;59.91;102189.34;4959273;28;46537;-85
2021/11/23 08:28:26;;;;;;;;;7.75;7.75;;;;;4.83;59.60;102174.75;4976667;28;46284;-81
2021/11/23 08:34:15;;;;;;;;;7.00;7.00;;;;;4.88;59.11;102177.22;4975786;28;45650;-84
2021/11/23 08:36:42;;;;;;;;;8.50;8.25;;;;;5.00;59.00;102193.41;4975132;28;46739;-82
2021/11/23 08:39:08;;;;;;;;;8.50;7.00;;;;;4.87;58.85;102157.34;4975302;28;46189;-84
2021/11/23 08:41:34;;;;;;;;;8.50;7.50;;;;;4.82;59.05;102152.25;4974288;28;46197;-79
2021/11/23 08:43:59;;;;;;;;;8.50;6.50;;;;;5.13;58.50;102193.13;4975164;28;45884;-81
2021/11/23 08:46:25;;;;;;;;;10.75;9.25;;;;;5.19;58.48;102185.16;4975119;28;45651;-83
2021/11/23 08:48:51;;;;;;;;;6.75;5.75;;;;;5.01;57.82;102152.72;4974800;28;46214;-80
2021/11/23 08:51:24;;;;;;;;;8.25;7.00;;;;;5.29;58.33;102184.09;4975206;28;45720;-81
2021/11/23 08:53:51;;;;;;;;;8.25;6.25;;;;;5.32;58.05;102181.41;4975652;28;45769;-81
2021/11/23 08:56:16;;;;;;;;;5.00;4.00;;;;;5.39;57.66;102180.38;4975688;28;47260;-80
2021/11/23 08:58:44;;;;;;;;;10.00;8.00;;;;;5.36;57.41;102183.03;4974891;28;45950;-79
2021/11/23 09:04:33;;;;;;;;;5.25;4.75;;;;;5.52;56.90;102199.09;4970306;28;45920;-83
2021/11/23 09:07:01;;;;;;;;;7.50;6.50;;;;;5.25;56.66;102138.25;4975461;28;45708;-81
2021/11/23 09:09:28;;;;;;;;;8.75;6.00;;;;;5.59;56.36;102182.47;4974127;28;46116;-79
2021/11/23 09:11:54;;;;;;;;;6.75;6.25;;;;;5.64;56.81;102191.00;4974348;28;46007;-82
2021/11/23 09:14:19;;;;;;;;;8.25;6.25;;;;;5.64;56.43;102185.81;4956481;28;45856;-82
2021/11/23 09:16:45;;;;;;;;;5.75;4.50;;;;;5.76;56.18;102188.09;4975902;28;46486;-83
2021/11/23 09:19:10;;;;;;;;;7.50;5.75;;;;;5.78;56.02;102188.88;4994389;28;46200;-81
2021/11/23 09:21:36;;;;;;;;;11.25;5.00;;;;;5.84;55.52;102200.00;4996668;28;45814;-83
2021/11/23 09:24:02;;;;;;;;;9.25;5.00;;;;;5.90;55.30;102204.22;4996481;28;45580;-81
2021/11/23 09:26:28;;;;;;;;;7.50;5.50;;;;;5.89;55.43;102200.75;4978925;28;47862;-82
2021/11/23 09:28:55;;;;;;;;;6.50;4.50;;;;;5.95;55.48;102207.56;4995765;28;46096;-80
2021/11/23 09:34:43;;;;;;;;;8.75;6.00;;;;;6.14;54.97;102208.78;4997441;28;45701;-85
2021/11/23 09:37:09;;;;;;;;;8.25;6.00;;;;;6.19;55.00;102204.31;4998444;28;46220;-80
2021/11/23 09:39:35;;;;;;;;;5.00;5.00;;;;;6.18;54.52;102192.19;4998651;28;46148;-80
2021/11/23 09:42:00;;;;;;;;;2.00;2.00;;;;;6.05;54.24;102167.38;4997824;28;45648;-83
2021/11/23 09:44:26;;;;;;;;;4.50;4.00;;;;;6.32;53.81;102205.66;4997700;28;45789;-85
2021/11/23 09:46:53;;;;;;;;;4.75;2.50;;;;;6.30;53.75;102199.66;4997303;28;45872;-80
2021/11/23 09:49:18;;;;;;;;;2.50;2.00;;;;;6.38;53.58;102201.19;4997571;28;46163;-80
2021/11/23 09:51:44;;;;;;;;;2.00;2.00;;;;;6.36;53.57;102195.19;4997863;28;45573;-82
2021/11/23 09:54:11;;;;;;;;;8.00;5.00;;;;;6.58;53.34;102217.13;4998028;28;45948;-84
2021/11/23 09:56:39;;;;;;;;;4.00;3.50;;;;;6.63;52.75;102210.03;4998326;28;45543;-84
2021/11/23 09:59:05;;;;;;;;;4.50;3.00;;;;;6.68;53.17;102206.38;4997975;28;46052;-84
2021/11/23 10:05:05;;;;;;;;;2.50;2.00;;;;;6.79;52.14;102200.00;4998716;28;45530;-87
2021/11/23 10:07:39;;;;;;;;;2.00;2.00;;;;;6.74;51.90;102187.13;4997336;28;46302;-82
2021/11/23 10:10:16;;;;;;;;;6.00;2.00;;;;;6.91;51.81;102199.66;4978914;28;47215;-84
2021/11/23 10:13:00;;;;;;;;;3.00;1.75;;;;;6.96;51.95;102198.59;4996487;28;45663;-85
2021/11/23 10:15:29;;;;;;;;;1.50;1.00;;;;;7.03;51.21;102197.50;4996399;28;45695;-84
2021/11/23 10:18:14;;;;;;;;;2.00;2.00;;;;;7.05;50.96;102189.63;4995320;28;45515;-85
2021/11/23 10:20:49;;;;;;;;;2.00;1.25;;;;;7.11;51.05;102195.53;4995375;28;47290;-83
2021/11/23 10:23:22;;;;;;;;;1.50;1.50;;;;;7.15;50.25;102196.25;4995650;28;45952;-86
2021/11/23 10:25:56;;;;;;;;;2.00;1.50;;;;;7.07;50.56;102170.44;4995076;28;45861;-83
2021/11/23 10:28:25;;;;;;;;;1.25;1.25;;;;;7.17;50.53;102176.22;4995202;28;45694;-83
2021/11/23 10:30:51;;;;;;;;;2.00;1.00;;;;;7.20;50.46;102176.13;4995067;28;45726;-84
2021/11/23 10:33:17;;;;;;;;;2.00;2.00;;;;;7.30;50.60;102184.50;4994840;28;45906;-84
2021/11/23 10:35:45;;;;;;;;;1.50;1.25;;;;;7.35;50.53;102185.19;4995226;28;45574;-84
2021/11/23 10:38:13;;;;;;;;;3.00;1.50;;;;;7.38;50.65;102179.91;4994115;28;45723;-85
2021/11/23 10:40:41;;;;;;;;;3.00;2.00;;;;;7.46;50.14;102170.06;4994752;28;46175;-82
2021/11/23 10:43:12;;;;;;;;;1.00;1.00;;;;;7.45;50.19;102179.63;4994363;28;45539;-81
2021/11/23 10:45:41;;;;;;;;;1.75;1.75;;;;;7.52;49.93;102177.69;4995153;28;45846;-83
2021/11/23 10:48:08;;;;;;;;;1.50;1.50;;;;;7.56;49.71;102171.44;4994991;28;47474;-87
2021/11/23 10:50:35;;;;;;;;;2.00;1.00;;;;;7.57;49.62;102170.56;4961561;28;48300;-84
2021/11/23 10:53:06;;;;;;;;;0.50;0.50;;;;;7.55;49.09;102161.94;4995597;28;45825;-82
2021/11/23 10:55:35;;;;;;;;;1.50;1.00;;;;;7.55;49.19;102156.72;4997052;28;45726;-75
2021/11/23 10:58:04;;;;;;;;;2.00;1.75;;;;;7.49;49.75;102142.16;4993425;28;46371;-76
2021/11/23 11:00:32;;;;;;;;;1.25;1.25;;;;;7.63;49.61;102162.53;4993974;28;46342;-74
2021/11/23 11:03:01;;;;;;;;;4.25;1.00;;;;;7.52;49.18;102125.53;4975778;28;45961;-74
2021/11/23 11:05:28;;;;;;;;;1.25;1.00;;;;;7.70;48.79;102152.75;4993770;28;45820;-75
2021/11/23 11:07:56;;;;;;;;;1.50;1.50;;;;;7.73;49.33;102144.81;4993504;28;47980;-75
2021/11/23 11:10:21;;;;;;;;;1.75;1.00;;;;;7.76;49.13;102153.41;4993651;28;46141;-77
2021/11/23 11:12:47;;;;;;;;;3.25;2.00;;;;;7.80;49.31;102149.75;4993348;28;45782;-75
2021/11/23 11:15:16;;;;;;;;;1.50;1.00;;;;;7.81;49.18;102133.22;4993126;28;45655;-75
2021/11/23 11:17:45;;;;;;;;;1.00;1.00;;;;;7.78;49.33;102128.09;4993285;28;46464;-78
2021/11/23 11:20:30;;;;;;;;;1.25;1.25;;;;;7.97;49.44;102139.59;4993629;28;46346;-77
2021/11/23 11:23:05;;;;;;;;;4.50;2.25;;;;;8.07;49.39;102147.94;4993667;28;45969;-76
2021/11/23 11:26:44;;;;;;;;;2.75;2.00;;;;;8.09;49.02;102140.91;4993633;28;45847;-76
2021/11/23 11:28:54;;;;;;;;;2.75;1.00;;;;;8.14;48.71;102141.59;4982557;28;45670;-75
2021/11/23 11:31:48;;;;;;;;;2.75;1.75;;;;;8.19;48.75;102133.59;4992779;28;47127;-77
2021/11/23 11:34:23;;;;;;;;;2.00;1.75;;;;;8.19;48.58;102130.97;4993269;28;45897;-76
2021/11/23 11:37:00;;;;;;;;;2.00;2.00;;;;;8.26;48.59;102130.69;4993655;28;45830;-76
2021/11/23 11:39:38;;;;;;;;;1.50;1.25;;;;;8.27;47.95;102123.69;4992876;28;46505;-77
2021/11/23 11:42:08;;;;;;;;;2.00;1.00;;;;;8.30;48.38;102123.63;4993089;28;45916;-76
2021/11/23 11:47:33;;;;;;;;;1.00;1.00;;;;;8.36;47.91;102126.88;4993180;28;45963;-76
2021/11/23 11:50:03;;;;;;;;;2.00;1.00;;;;;8.33;47.58;102116.53;4992970;28;46350;-76
2021/11/23 11:52:33;;;;;;;;;1.00;1.00;;;;;8.40;47.19;102122.38;4975079;28;47970;-77
2021/11/23 11:55:20;;;;;;;;;1.25;1.00;;;;;8.38;47.77;102112.00;4991988;28;45592;-73
2021/11/23 11:57:49;;;;;;;;;2.00;1.25;;;;;8.43;47.86;102112.66;4993010;28;45602;-75
2021/11/23 12:03:36;;;;;;;;;1.50;1.00;;;;;8.52;48.11;102097.56;4992197;28;46394;-77
2021/11/23 12:06:06;;;;;;;;;2.50;2.00;;;;;8.52;48.08;102095.81;4992426;28;45732;-77
2021/11/23 12:08:37;;;;;;;;;2.25;1.00;;;;;8.57;47.80;102085.19;4993109;28;45820;-77
2021/11/23 12:11:08;;;;;;;;;1.00;1.00;;;;;8.58;48.02;102089.50;4974957;28;46660;-77
2021/11/23 12:13:35;;;;;;;;;0.00;0.00;;;;;8.62;47.87;102088.47;4992334;28;46413;-76
2021/11/23 12:19:51;;;;;;;;;1.00;0.00;;;;;8.66;47.62;102084.81;4990959;28;45894;-76
2021/11/23 12:22:26;;;;;;;;;1.75;0.50;;;;;8.65;47.67;102078.72;4992938;28;45702;-78
2021/11/23 12:24:53;;;;;;;;;1.00;0.00;;;;;8.62;47.71;102068.41;4992318;28;46287;-76
2021/11/23 12:27:21;;;;;;;;;1.00;1.00;;;;;8.66;47.58;102075.22;4992956;28;45676;-76
2021/11/23 12:29:53;;;;;;;;;1.00;1.00;;;;;8.70;47.58;102075.94;4993132;28;45690;-74
2021/11/23 12:35:40;;;;;;;;;2.00;1.00;;;;;8.83;48.11;102070.16;4994137;28;45849;-77
2021/11/23 12:38:06;;;;;;;;;1.00;0.75;;;;;8.84;47.56;102057.94;4977176;28;46029;-76
2021/11/23 12:40:32;;;;;;;;;1.00;0.50;;;;;8.87;47.51;102062.19;4996411;28;45533;-76
2021/11/23 12:43:05;;;;;;;;;0.00;0.00;;;;;8.93;47.55;102056.72;4997001;28;46381;-77